Portada
METAR-TAF:

METAR-TAF

Aeropuertos :

Saint Louis, Senegal

latitud: 16-03N, longitud: 016-27W, altitud: 4 m

Observación

El informe se hizo hace 49 minutos, a las 16:00 UTC
Viento 8 kt del norte
Temperatura 23°C
Humedad 69%
Presión 1010 hPa
Visibilidad 10 km o más
sin nubes por debajo de 1500 m y sin presencia de cumulonimbus.

METAR: GOSS 151600Z 36008KT CAVOK 23/17 Q1010

Hora: 16:49 (16:49 UTC)

Pronóstico

El informe se hizo hace 5 horas y 19 minutos, a las 11:30 UTC
Pronóstico válido del 15 a las 12 UTC al 16 a las 12 UTC
Viento 8 kt del norte
Visibilidad 10 km o más
sin nubes por debajo de 1500 m y sin presencia de cumulonimbus.

TAF: GOSS 151130Z 1512/1612 36008KT CAVOK

Observaciones y pronósticos meteorológicos de más de 4000 aeropuertos (mensajes METAR y TAF).

Los puntos amarillos y rojos representan las estaciones disponibles.

Ponga el ratón en el punto deseado para ver el nombre de la estación.

Haga clic para ver las observaciones y los pronósticos meteorológicos.

Para cambiar el mapa : haga clic en los botones verdes con una cruz de color negro para hacer un zoom, en el botón verde con un guión para alejar o en las flechas verdes para mapas adyacentes.


METAR-TAF: